Time;durP1;ratioP1;P1;durP2;ratioP2;P2;SDS_P1;SDS_P2;PMS_P1;PMS_P2;Temp;Humidity;BMP_temperature;BMP_pressure;BME280_temperature;BME280_humidity;BME280_pressure;Samples;Min_cycle;Max_cycle;Signal;HPM_P1;HPM_P2
2022/03/15 00:01:14;;;;;;;2.40;2.10;;;;;;;14.95;41.61;98128.75;4939391;28;20227;-86
2022/03/15 00:03:41;;;;;;;1.97;1.83;;;;;;;18.09;41.35;98594.38;4966483;28;20639;-86
2022/03/15 00:06:08;;;;;;;2.00;1.80;;;;;;;15.93;41.84;98216.16;4943311;28;20229;-86
2022/03/15 00:08:34;;;;;;;2.57;2.27;;;;;;;17.07;41.67;98415.25;4959053;28;20199;-86
2022/03/15 00:11:05;;;;;;;3.27;2.20;;;;;;;17.29;41.43;98442.03;4958516;28;20262;-85
2022/03/15 00:13:37;;;;;;;2.03;1.80;;;;;;;17.39;41.42;98462.13;4955858;28;20219;-85
2022/03/15 00:16:05;;;;;;;2.60;2.13;;;;;;;18.26;41.24;98620.84;4924341;28;20204;-85
2022/03/15 00:18:32;;;;;;;3.80;1.80;;;;;;;17.54;41.13;98485.06;4940363;28;20214;-84
2022/03/15 00:21:01;;;;;;;3.03;1.83;;;;;;;17.06;41.55;98418.56;4955524;28;20707;-86
2022/03/15 00:23:31;;;;;;;2.20;2.00;;;;;;;16.22;41.47;98292.31;4947529;28;20202;-85
2022/03/15 00:26:00;;;;;;;2.30;1.90;;;;;;;16.21;41.38;98250.91;4943521;28;20278;-86
2022/03/15 00:28:29;;;;;;;2.67;2.10;;;;;;;16.23;41.33;98254.38;4927933;28;20207;-86
2022/03/15 00:30:55;;;;;;;2.33;2.13;;;;;;;17.69;41.10;98514.84;4943547;28;20270;-85
2022/03/15 00:33:24;;;;;;;2.00;1.90;;;;;;;18.24;41.31;98598.69;4948579;28;20253;-85
2022/03/15 00:35:53;;;;;;;2.13;1.93;;;;;;;17.11;41.28;98402.81;4963206;28;20203;-84
2022/03/15 00:38:20;;;;;;;2.40;1.90;;;;;;;17.23;41.22;98433.19;4962339;28;20206;-84
2022/03/15 00:40:47;;;;;;;3.70;1.80;;;;;;;16.22;41.18;98254.28;4962045;28;20231;-84
2022/03/15 00:43:14;;;;;;;2.37;2.03;;;;;;;17.98;40.91;98570.84;4978180;28;20677;-83
2022/03/15 00:45:40;;;;;;;2.67;2.10;;;;;;;18.21;41.23;98603.59;4977943;28;20227;-84
2022/03/15 00:48:07;;;;;;;2.13;1.87;;;;;;;16.09;41.21;98267.00;4978085;28;20760;-84
2022/03/15 00:50:37;;;;;;;2.23;2.03;;;;;;;16.22;41.35;98259.38;4962206;28;20219;-87
2022/03/15 00:53:04;;;;;;;2.10;1.87;;;;;;;17.39;41.29;98441.81;4946463;28;20199;-85
2022/03/15 00:55:31;;;;;;;2.43;2.03;;;;;;;15.51;41.52;98145.06;4961920;28;20258;-85
2022/03/15 00:57:58;;;;;;;2.20;2.00;;;;;;;15.66;41.54;98148.56;4962316;28;20297;-86
2022/03/15 01:00:35;;;;;;;2.30;2.10;;;;;;;16.96;41.71;98381.56;4964517;28;20222;-85
2022/03/15 01:03:05;;;;;;;2.00;1.83;;;;;;;15.99;41.69;98188.66;4946434;28;20199;-85
2022/03/15 01:27:01;;;;;;;3.43;1.97;;;;;;;17.92;41.74;98488.22;6027616;23;20162;-85
2022/03/15 01:29:31;;;;;;;1.93;1.70;;;;;;;16.55;41.25;98246.22;4941457;28;20235;-85
2022/03/15 01:31:59;;;;;;;3.67;2.00;;;;;;;14.95;41.33;97978.59;4945301;28;20205;-85
2022/03/15 01:34:27;;;;;;;2.40;1.87;;;;;;;15.96;41.46;98132.69;4956615;28;20187;-85
2022/03/15 02:14:31;;;;;;;2.47;2.00;;;;;;;18.17;41.17;98481.22;4935073;29;20738;-77
2022/03/15 02:17:07;;;;;;;2.43;1.80;;;;;;;11.90;41.09;97518.66;4917676;29;20585;-79
2022/03/15 02:19:36;;;;;;;2.43;1.90;;;;;;;12.40;40.96;97469.03;4909219;29;20208;-79
2022/03/15 02:22:03;;;;;;;2.00;1.80;;;;;;;10.19;41.10;97122.41;4913330;29;20217;-79
2022/03/15 02:24:35;;;;;;;2.10;1.90;;;;;;;8.04;41.06;96830.16;4939327;29;20236;-77
2022/03/15 02:27:01;;;;;;;2.10;1.90;;;;;;;18.49;41.39;98517.06;4902632;29;20205;-78
2022/03/15 02:29:28;;;;;;;2.20;2.00;;;;;;;9.93;40.81;97137.31;4883439;29;20268;-78
2022/03/15 02:31:56;;;;;;;2.00;1.83;;;;;;;13.59;41.21;97775.25;4898620;29;20240;-78
2022/03/15 02:34:23;;;;;;;2.17;1.97;;;;;;;18.49;40.98;98519.59;4942079;29;20292;-78
2022/03/15 02:36:52;;;;;;;1.77;1.67;;;;;;;13.18;41.31;97669.94;4934870;29;20205;-78
2022/03/15 02:39:19;;;;;;;2.57;1.90;;;;;;;7.61;41.21;96630.41;4902494;29;20205;-78
2022/03/15 02:41:45;;;;;;;2.20;2.00;;;;;;;17.93;40.90;98426.41;4917100;29;20224;-79
2022/03/15 02:44:12;;;;;;;3.63;1.90;;;;;;;17.13;41.06;98464.75;4921801;29;20263;-79
2022/03/15 02:46:39;;;;;;;2.30;1.90;;;;;;;13.16;41.15;97648.75;4936540;29;20196;-79
2022/03/15 02:49:09;;;;;;;1.87;1.73;;;;;;;14.59;41.29;97907.25;4921378;29;20605;-79
2022/03/15 02:51:39;;;;;;;2.00;1.80;;;;;;;16.15;40.98;98117.78;4930654;29;20220;-79
2022/03/15 02:54:08;;;;;;;2.10;1.90;;;;;;;15.83;40.77;98051.63;4951020;28;20551;-79
2022/03/15 02:56:39;;;;;;;2.17;1.77;;;;;;;6.85;40.85;96501.03;4936338;29;20594;-79
2022/03/15 02:59:05;;;;;;;1.67;1.57;;;;;;;13.56;41.11;97695.94;4932709;29;20232;-79
2022/03/15 03:01:35;;;;;;;2.90;1.80;;;;;;;16.36;40.76;98146.94;4887337;29;20595;-79
2022/03/15 03:04:02;;;;;;;1.70;1.60;;;;;;;12.02;40.73;97392.69;4930873;29;20239;-79
2022/03/15 03:06:32;;;;;;;1.80;1.70;;;;;;;13.04;41.07;97603.47;4921278;29;20235;-79
2022/03/15 03:09:02;;;;;;;1.90;1.80;;;;;;;14.95;41.05;97908.59;4933030;29;20193;-78
2022/03/15 03:11:34;;;;;;;2.20;1.80;;;;;;;18.41;41.14;98504.69;4918977;29;20271;-79
2022/03/15 03:14:12;;;;;;;2.10;1.90;;;;;;;7.74;41.02;96737.13;4921873;29;20246;-78
2022/03/15 03:16:40;;;;;;;2.10;1.80;;;;;;;12.24;41.24;97418.44;4917473;29;20271;-78
2022/03/15 03:19:08;;;;;;;1.93;1.80;;;;;;;11.57;40.94;97370.41;4916597;29;20197;-77
2022/03/15 03:21:45;;;;;;;2.47;1.80;;;;;;;17.05;41.34;98262.78;4918026;29;20216;-78
2022/03/15 03:24:19;;;;;;;2.20;1.80;;;;;;;13.95;41.13;97728.72;4932198;29;20200;-78
2022/03/15 03:26:45;;;;;;;2.03;1.60;;;;;;;18.37;40.77;98497.63;4929057;29;20259;-78
2022/03/15 03:29:15;;;;;;;2.00;1.87;;;;;;;15.37;40.70;97971.09;4920911;29;20252;-79
2022/03/15 03:31:50;;;;;;;2.00;1.77;;;;;;;17.71;41.39;98380.19;4952593;28;20230;-78
2022/03/15 03:34:20;;;;;;;1.70;1.60;;;;;;;18.36;41.32;98490.78;4905830;29;20204;-78
2022/03/15 03:36:52;;;;;;;1.77;1.67;;;;;;;17.15;41.29;98312.47;4933688;29;20599;-86
2022/03/15 03:39:32;;;;;;;1.87;1.70;;;;;;;18.36;41.40;98493.31;4923454;29;20212;-85
2022/03/15 03:42:05;;;;;;;1.80;1.70;;;;;;;17.44;41.34;98346.41;4917083;29;20228;-86
2022/03/15 03:44:40;;;;;;;1.67;1.57;;;;;;;12.43;41.47;97497.81;4906937;29;20201;-85
2022/03/15 03:47:10;;;;;;;1.70;1.60;;;;;;;12.18;40.99;97420.56;4953314;29;20212;-85
2022/03/15 03:49:40;;;;;;;1.90;1.80;;;;;;;12.93;41.03;97545.53;4953353;29;20188;-85
2022/03/15 03:52:14;;;;;;;2.23;1.90;;;;;;;9.87;41.35;97018.97;4951258;28;20268;-85
2022/03/15 03:54:47;;;;;;;1.77;1.67;;;;;;;13.16;41.71;97629.47;4918226;29;20279;-87
2022/03/15 03:57:22;;;;;;;2.13;1.77;;;;;;;12.31;41.54;97508.75;4907060;29;20722;-85
2022/03/15 03:59:55;;;;;;;1.70;1.60;;;;;;;14.15;41.32;97749.38;4924425;29;20192;-86
2022/03/15 04:02:29;;;;;;;1.60;1.50;;;;;;;14.90;41.27;97873.69;4933993;28;20208;-85
2022/03/15 04:04:58;;;;;;;1.70;1.60;;;;;;;15.77;41.07;98066.44;4896421;29;20851;-85
2022/03/15 04:07:25;;;;;;;2.17;1.97;;;;;;;7.81;41.03;96741.78;4919865;29;20209;-78
2022/03/15 04:09:52;;;;;;;1.87;1.77;;;;;;;17.82;41.33;98376.56;4920428;29;20637;-78
2022/03/15 04:12:25;;;;;;;1.80;1.67;;;;;;;10.43;41.15;97087.22;4941586;29;20203;-78
2022/03/15 04:14:53;;;;;;;1.80;1.70;;;;;;;7.78;41.21;96621.56;4922785;29;20219;-79
2022/03/15 04:17:29;;;;;;;2.57;1.93;;;;;;;17.73;41.16;98493.00;4909355;29;20733;-78
2022/03/15 04:20:06;;;;;;;1.97;1.80;;;;;;;13.96;40.94;97717.81;4923541;29;20208;-78
2022/03/15 04:22:39;;;;;;;1.67;1.57;;;;;;;9.45;40.67;97017.00;4934188;29;20199;-79
2022/03/15 04:25:06;;;;;;;1.77;1.67;;;;;;;18.49;40.82;98496.69;4926213;29;20247;-81
2022/03/15 04:27:35;;;;;;;2.00;1.80;;;;;;;11.36;40.87;97320.34;4926081;29;20257;-78
2022/03/15 04:30:08;;;;;;;2.17;1.97;;;;;;;11.26;40.95;97224.94;4922739;29;20193;-78
2022/03/15 04:32:35;;;;;;;1.90;1.80;;;;;;;14.82;40.81;97842.88;4919276;29;20227;-78
2022/03/15 04:35:05;;;;;;;2.23;1.77;;;;;;;12.12;40.86;97369.81;4906898;29;20571;-77
2022/03/15 04:37:35;;;;;;;1.80;1.70;;;;;;;13.74;41.49;97700.47;4907621;29;20256;-78
2022/03/15 04:40:02;;;;;;;1.80;1.70;;;;;;;17.74;41.39;98349.88;4938889;29;20200;-79
2022/03/15 04:42:28;;;;;;;2.17;1.87;;;;;;;11.79;41.41;97324.88;4917966;29;20206;-78
2022/03/15 04:45:01;;;;;;;1.60;1.50;;;;;;;14.43;41.50;97772.19;4958362;28;20211;-78
2022/03/15 04:47:27;;;;;;;3.37;2.23;;;;;;;16.70;41.39;98171.03;4913221;29;20212;-79
2022/03/15 04:49:54;;;;;;;1.83;1.70;;;;;;;17.50;40.89;98305.25;4919129;29;20212;-79
2022/03/15 04:52:26;;;;;;;1.90;1.70;;;;;;;10.96;41.21;97208.78;4904546;29;20730;-79
2022/03/15 04:54:52;;;;;;;2.50;1.80;;;;;;;16.67;41.13;98165.75;4923599;29;20284;-79
2022/03/15 04:57:19;;;;;;;2.10;1.97;;;;;;;16.85;41.54;98192.22;4921615;29;20291;-79
2022/03/15 04:59:46;;;;;;;1.70;1.60;;;;;;;12.65;41.38;97452.16;4894179;29;20268;-78
2022/03/15 05:02:12;;;;;;;2.40;1.80;;;;;;;17.48;41.82;98291.56;4912585;29;20233;-81
2022/03/15 05:04:41;;;;;;;1.70;1.60;;;;;;;16.94;41.35;98194.41;4901107;29;20201;-79
2022/03/15 05:07:09;;;;;;;1.90;1.80;;;;;;;17.88;41.25;98369.31;4901462;29;20229;-79
2022/03/15 05:11:05;;;;;;;1.97;1.87;;;;;;;18.08;41.66;98396.75;4908509;29;20288;-79
2022/03/15 05:12:24;;;;;;;2.10;1.90;;;;;;;18.41;41.34;98453.78;4904116;29;20205;-81
2022/03/15 05:14:51;;;;;;;1.93;1.70;;;;;;;17.85;41.65;98364.94;4903311;29;20622;-79
2022/03/15 05:17:19;;;;;;;1.70;1.60;;;;;;;18.39;41.85;98446.06;4904425;29;20201;-80
2022/03/15 05:19:49;;;;;;;2.10;1.90;;;;;;;18.39;41.35;98437.53;4918957;29;20272;-79
2022/03/15 05:22:16;;;;;;;1.67;1.57;;;;;;;17.76;41.67;98333.91;4935882;29;20298;-81
2022/03/15 05:24:43;;;;;;;1.77;1.53;;;;;;;18.02;41.48;98369.31;4918490;29;20221;-79
2022/03/15 05:27:10;;;;;;;1.70;1.50;;;;;;;18.37;41.28;98431.44;4930263;29;20252;-78
2022/03/15 05:29:36;;;;;;;1.67;1.57;;;;;;;16.76;41.14;98152.72;4925986;29;20235;-81
2022/03/15 05:32:03;;;;;;;1.70;1.60;;;;;;;18.37;41.25;98436.53;4918876;29;20279;-78
2022/03/15 05:34:30;;;;;;;1.80;1.70;;;;;;;17.42;40.97;98274.28;4920371;29;20233;-80
2022/03/15 05:36:57;;;;;;;2.10;1.90;;;;;;;18.01;41.18;98380.28;4908392;29;20225;-81
2022/03/15 05:39:23;;;;;;;2.10;1.90;;;;;;;17.76;41.80;98326.28;4918304;29;20224;-78
2022/03/15 05:41:50;;;;;;;2.93;2.10;;;;;;;18.03;41.62;98367.66;4902670;29;20296;-79
2022/03/15 05:44:17;;;;;;;11.60;3.73;;;;;;;17.93;39.99;98351.00;4921784;29;20228;-80
2022/03/15 05:46:44;;;;;;;9.90;5.30;;;;;;;18.33;39.06;98410.06;4908085;29;20260;-81
2022/03/15 05:49:10;;;;;;;12.40;5.63;;;;;;;17.57;38.45;98285.38;4902888;29;20732;-80
2022/03/15 05:51:37;;;;;;;7.30;5.50;;;;;;;17.34;37.90;98247.56;4917549;29;20229;-80
2022/03/15 05:54:04;;;;;;;9.47;6.17;;;;;;;18.26;38.29;98412.19;4934120;29;20196;-80
2022/03/15 05:56:34;;;;;;;8.87;5.97;;;;;;;18.23;37.75;98410.31;4925979;29;20263;-83
2022/03/15 05:59:00;;;;;;;11.07;6.10;;;;;;;16.20;37.83;98081.75;4917107;29;20201;-81
2022/03/15 06:01:27;;;;;;;9.43;5.63;;;;;;;16.23;37.80;98099.69;4895858;29;20328;-81
2022/03/15 06:03:59;;;;;;;9.57;6.17;;;;;;;17.18;37.87;98274.53;4920231;29;20200;-81
2022/03/15 06:06:25;;;;;;;8.70;6.00;;;;;;;17.53;37.99;98346.09;4911191;29;20308;-82
2022/03/15 06:08:52;;;;;;;9.83;6.43;;;;;;;16.33;38.44;98139.16;4903157;29;20236;-83
2022/03/15 06:11:20;;;;;;;9.23;6.03;;;;;;;17.15;38.61;98279.44;4902655;29;20229;-83
2022/03/15 06:13:47;;;;;;;9.80;6.67;;;;;;;17.17;38.80;98295.66;4886963;29;20333;-82
2022/03/15 06:16:14;;;;;;;9.10;5.90;;;;;;;17.38;39.04;98338.41;4910895;29;20567;-82
2022/03/15 06:18:41;;;;;;;9.03;6.13;;;;;;;15.88;38.98;98081.53;4908416;29;20197;-83
2022/03/15 06:21:07;;;;;;;8.00;5.33;;;;;;;16.60;39.05;98216.94;4923878;29;20758;-81
2022/03/15 06:23:34;;;;;;;10.47;5.63;;;;;;;17.47;39.14;98377.09;4917496;29;20228;-82
2022/03/15 06:26:09;;;;;;;7.10;5.83;;;;;;;16.22;39.22;98150.31;4904940;29;20304;-82
2022/03/15 06:28:37;;;;;;;9.30;5.70;;;;;;;17.76;39.59;98415.25;4913648;29;20659;-81
2022/03/15 06:31:04;;;;;;;8.17;5.20;;;;;;;11.58;39.42;97326.00;4912030;29;20303;-81
2022/03/15 06:33:31;;;;;;;8.50;5.17;;;;;;;17.56;39.22;98366.59;4917886;29;20205;-84
2022/03/15 06:35:57;;;;;;;6.93;5.17;;;;;;;17.94;39.57;98435.75;4899109;29;20229;-83
2022/03/15 06:38:24;;;;;;;5.50;4.97;;;;;;;17.83;39.29;98424.97;4913859;29;20285;-82
2022/03/15 06:40:52;;;;;;;7.80;5.40;;;;;;;18.05;39.31;98461.03;4922981;29;20597;-81
2022/03/15 06:43:19;;;;;;;7.70;5.30;;;;;;;17.56;39.37;98380.16;4936110;29;20295;-81
2022/03/15 06:45:46;;;;;;;7.67;5.10;;;;;;;16.01;39.74;98111.91;4883982;29;20312;-83
2022/03/15 06:48:14;;;;;;;10.87;5.57;;;;;;;17.77;39.54;98472.94;4889208;29;20260;-83
2022/03/15 06:50:41;;;;;;;7.17;4.97;;;;;;;18.13;39.55;98492.91;4913910;29;20256;-82
2022/03/15 06:53:08;;;;;;;7.27;5.60;;;;;;;17.80;39.60;98429.88;4953090;29;20737;-81
2022/03/15 06:55:34;;;;;;;7.50;4.90;;;;;;;16.03;39.22;98107.81;4917299;29;20298;-84
2022/03/15 06:58:01;;;;;;;7.80;4.77;;;;;;;17.47;39.73;98368.59;4897282;29;20232;-81
2022/03/15 07:00:27;;;;;;;7.30;4.73;;;;;;;17.32;39.43;98332.97;4901906;29;20256;-80
2022/03/15 07:02:54;;;;;;;7.03;5.27;;;;;;;16.80;39.44;98225.72;4923878;29;20238;-81
2022/03/15 07:05:22;;;;;;;10.63;5.57;;;;;;;17.23;39.11;98301.94;4902108;29;20271;-81
2022/03/15 07:07:49;;;;;;;8.30;6.17;;;;;;;17.96;39.63;98436.75;4916791;29;20247;-82
2022/03/15 07:10:17;;;;;;;8.83;6.20;;;;;;;17.28;39.44;98310.72;4899908;29;20260;-80
2022/03/15 07:12:44;;;;;;;9.07;6.57;;;;;;;16.90;39.53;98248.34;4909434;29;20228;-77
2022/03/15 07:15:11;;;;;;;9.57;6.20;;;;;;;18.14;39.26;98461.56;4899787;29;20288;-81
2022/03/15 07:17:37;;;;;;;12.33;7.03;;;;;;;17.18;39.33;98274.53;4931979;29;20288;-81
2022/03/15 07:20:04;;;;;;;8.90;6.97;;;;;;;17.12;39.84;98257.28;4900098;29;20276;-81
2022/03/15 07:22:31;;;;;;;7.60;6.37;;;;;;;17.14;39.25;98260.78;4916075;29;20211;-82
2022/03/15 07:24:58;;;;;;;10.77;7.70;;;;;;;18.10;39.95;98431.69;4901150;29;20217;-81
2022/03/15 07:27:24;;;;;;;13.43;7.63;;;;;;;18.10;39.48;98443.50;4916012;29;20279;-81
2022/03/15 07:29:51;;;;;;;11.53;7.47;;;;;;;17.42;39.63;98345.44;4913465;29;20209;-81
2022/03/15 07:32:17;;;;;;;11.77;7.90;;;;;;;17.18;39.57;98307.56;4902857;29;20244;-82
2022/03/15 07:34:44;;;;;;;9.87;6.67;;;;;;;17.03;39.83;98278.72;4899435;29;20220;-81
2022/03/15 07:37:11;;;;;;;8.10;6.83;;;;;;;18.07;39.65;98453.50;4922578;29;20233;-82
2022/03/15 07:39:38;;;;;;;8.60;7.00;;;;;;;17.46;40.10;98349.03;4900061;29;20656;-81
2022/03/15 07:42:05;;;;;;;10.70;6.87;;;;;;;17.76;39.58;98402.53;4919229;29;20311;-81
2022/03/15 07:44:31;;;;;;;10.57;6.57;;;;;;;17.39;39.59;98332.56;4934028;29;20233;-81
2022/03/15 07:46:58;;;;;;;9.73;6.80;;;;;;;18.06;39.67;98451.75;4895951;29;20307;-82
2022/03/15 07:49:25;;;;;;;10.73;7.10;;;;;;;17.52;39.77;98359.56;4899680;29;20209;-82
2022/03/15 07:51:52;;;;;;;8.20;6.40;;;;;;;17.09;39.67;98277.44;4899467;29;20224;-80
2022/03/15 07:54:18;;;;;;;8.70;6.47;;;;;;;16.74;40.01;98216.09;4922157;29;20248;-82
2022/03/15 07:56:45;;;;;;;7.90;6.10;;;;;;;17.71;39.91;98393.75;4913879;29;20231;-79
2022/03/15 07:59:12;;;;;;;9.80;6.40;;;;;;;17.47;39.35;98351.69;4908685;29;20236;-80
2022/03/15 08:01:38;;;;;;;6.47;5.70;;;;;;;16.89;39.58;98251.63;4922678;29;20228;-80
2022/03/15 08:04:05;;;;;;;7.77;6.20;;;;;;;18.08;39.55;98457.78;4903910;29;20244;-79
2022/03/15 08:06:35;;;;;;;11.67;6.77;;;;;;;18.08;39.91;98451.06;4918807;29;20232;-80
2022/03/15 08:09:05;;;;;;;6.73;5.60;;;;;;;18.10;40.00;98453.69;4948826;29;20196;-79
2022/03/15 08:11:32;;;;;;;7.63;6.07;;;;;;;16.93;39.81;98238.38;5069916;23;20666;-88
2022/03/15 08:13:59;;;;;;;8.93;6.10;;;;;;;17.40;39.80;98330.88;4940108;28;20692;-87
2022/03/15 08:16:25;;;;;;;7.70;5.90;;;;;;;17.21;39.67;98306.09;4942738;28;20232;-87
2022/03/15 08:18:53;;;;;;;8.97;5.67;;;;;;;15.50;39.66;97998.94;4956170;28;20214;-87
2022/03/15 08:21:21;;;;;;;8.00;6.47;;;;;;;16.96;39.94;98247.00;4932549;28;20255;-84
2022/03/15 08:23:48;;;;;;;8.63;6.23;;;;;;;16.34;39.69;98171.34;4924087;28;20295;-88
2022/03/15 08:26:14;;;;;;;8.30;6.20;;;;;;;17.26;40.23;98298.72;4951372;28;20399;-87
2022/03/15 08:28:41;;;;;;;7.57;6.50;;;;;;;17.39;39.72;98319.84;4936421;28;20239;-88
2022/03/15 09:14:20;;;;;;;8.17;5.77;;;;;;;17.08;39.61;98211.31;5114977;23;20234;-86
2022/03/15 09:16:47;;;;;;;7.13;5.53;;;;;;;17.74;39.49;98291.41;4960374;28;20223;-86
2022/03/15 09:19:14;;;;;;;7.57;6.50;;;;;;;18.41;39.79;98420.72;4975677;28;20206;-86
2022/03/15 09:21:40;;;;;;;7.87;6.13;;;;;;;17.07;39.58;98176.53;4959454;28;20223;-86
2022/03/15 09:24:07;;;;;;;7.03;6.20;;;;;;;18.42;39.38;98390.25;4960642;28;20293;-86
2022/03/15 09:26:34;;;;;;;9.90;5.90;;;;;;;18.00;39.67;98321.69;4976221;28;20310;-86
2022/03/15 09:29:00;;;;;;;7.17;5.73;;;;;;;17.72;39.71;98262.47;4960041;28;20238;-86
2022/03/15 09:31:27;;;;;;;6.87;5.70;;;;;;;17.59;39.72;98249.88;4948808;28;20266;-86
2022/03/15 09:33:54;;;;;;;12.40;6.10;;;;;;;17.84;39.12;98299.63;4943619;28;20682;-84
2022/03/15 09:36:20;;;;;;;6.30;5.70;;;;;;;18.07;39.55;98341.59;4925394;28;20200;-86
2022/03/15 09:38:47;;;;;;;8.43;6.10;;;;;;;16.99;39.26;98145.63;4941012;28;20689;-86
2022/03/15 09:41:15;;;;;;;6.93;6.23;;;;;;;17.62;39.44;98250.88;4924865;28;20270;-86
2022/03/15 09:43:45;;;;;;;6.43;5.83;;;;;;;17.85;39.57;98293.72;4917332;29;20247;-86
2022/03/15 09:46:12;;;;;;;7.60;6.50;;;;;;;18.12;39.62;98343.59;4920858;28;20637;-82
2022/03/15 09:48:59;;;;;;;7.20;6.47;;;;;;;17.88;39.61;98287.94;4945056;28;20212;-87
2022/03/15 09:51:27;;;;;;;7.53;6.77;;;;;;;18.11;39.58;98321.50;4936828;28;20240;-86
2022/03/15 09:53:54;;;;;;;6.60;5.93;;;;;;;17.11;39.93;98141.25;4939863;28;20673;-87
2022/03/15 09:56:21;;;;;;;8.07;6.40;;;;;;;17.44;39.57;98198.19;4913417;28;20291;-86
2022/03/15 09:58:47;;;;;;;7.57;6.77;;;;;;;18.04;39.88;98291.44;4927458;29;20291;-82
2022/03/15 10:01:17;;;;;;;7.23;6.50;;;;;;;17.77;39.81;98248.34;4926220;29;20674;-86
2022/03/15 10:03:45;;;;;;;7.23;5.90;;;;;;;17.30;39.64;98194.84;4952926;28;20199;-87
2022/03/15 10:06:15;;;;;;;7.60;6.77;;;;;;;17.62;39.74;98222.94;4955599;28;20266;-83
2022/03/15 10:08:46;;;;;;;7.63;6.83;;;;;;;12.80;39.77;97407.72;4972456;28;20227;-90
2022/03/15 10:16:58;;;;;;;7.57;6.73;;;;;;;18.39;39.91;98372.25;5002184;23;20191;-90
2022/03/15 10:19:52;;;;;;;8.27;6.33;;;;;;;18.37;40.22;98376.38;4975723;28;20166;-90
2022/03/15 10:22:32;;;;;;;8.07;6.47;;;;;;;14.18;39.85;97672.91;4972676;28;20172;-90
2022/03/15 10:25:00;;;;;;;7.93;6.20;;;;;;;14.31;40.39;97698.13;4954231;28;20160;-90
2022/03/15 10:28:31;;;;;;;8.17;6.33;;;;;;;16.62;40.09;98087.59;4979960;28;20261;-91
2022/03/15 10:30:59;;;;;;;7.37;6.13;;;;;;;14.17;39.89;97629.03;4992160;28;20207;-90
2022/03/15 10:33:26;;;;;;;8.50;6.30;;;;;;;10.81;39.83;97103.09;4976658;28;20202;-90
2022/03/15 10:35:53;;;;;;;6.53;5.93;;;;;;;14.31;39.70;97703.19;5004853;28;20183;-90
2022/03/15 10:39:10;;;;;;;8.50;6.43;;;;;;;12.18;40.48;97279.53;4992802;28;20159;-91
2022/03/15 10:42:32;;;;;;;6.97;5.67;;;;;;;12.18;39.97;97353.44;4984731;28;20183;-91
2022/03/15 10:51:59;;;;;;;8.50;5.77;;;;;;;10.53;39.67;97025.88;4967002;28;20173;-89
2022/03/15 10:54:40;;;;;;;11.23;5.90;;;;;;;14.31;39.81;97693.09;4961300;29;20272;-87
2022/03/15 11:02:30;;;;;;;7.07;5.87;;;;;;;18.51;39.78;98321.16;5308475;23;20219;-90
2022/03/15 11:05:55;;;;;;;6.27;5.63;;;;;;;10.61;39.85;97045.69;4969543;28;20195;-90
2022/03/15 11:12:14;;;;;;;6.37;5.63;;;;;;;14.12;39.59;97584.94;5001271;28;20164;-90
2022/03/15 11:15:34;;;;;;;7.73;5.90;;;;;;;12.11;39.82;97215.31;4956886;28;20164;-91
2022/03/15 11:18:20;;;;;;;6.00;5.40;;;;;;;17.19;39.66;98073.09;4968974;28;20258;-86
2022/03/15 11:20:50;;;;;;;5.80;5.20;;;;;;;16.26;39.85;97868.25;4939427;28;20217;-86
2022/03/15 11:23:19;;;;;;;6.40;5.70;;;;;;;18.29;39.71;98217.28;4924066;28;20211;-86
2022/03/15 11:25:48;;;;;;;6.37;5.77;;;;;;;18.27;39.37;98201.94;4937179;28;20234;-87
2022/03/15 11:28:19;;;;;;;6.37;5.60;;;;;;;17.98;39.31;98138.50;4924745;28;20219;-86
2022/03/15 11:30:46;;;;;;;6.23;5.63;;;;;;;18.22;39.53;98179.59;4936698;28;20219;-88
2022/03/15 11:33:13;;;;;;;5.93;5.27;;;;;;;17.63;39.37;98079.84;4920825;28;20254;-87
2022/03/15 11:35:40;;;;;;;6.23;5.63;;;;;;;18.04;39.39;98148.13;4943157;28;20302;-85
2022/03/15 11:38:09;;;;;;;6.30;4.80;;;;;;;16.96;39.36;97956.72;4907909;29;20230;-87
2022/03/15 11:40:36;;;;;;;6.53;4.97;;;;;;;16.66;39.23;97944.88;4922196;28;20291;-86
2022/03/15 11:43:09;;;;;;;5.93;5.33;;;;;;;18.16;39.98;98159.81;4917977;28;20279;-86
2022/03/15 11:45:40;;;;;;;5.57;5.03;;;;;;;16.85;39.44;97901.97;4927192;28;20623;-87
2022/03/15 11:48:41;;;;;;;7.63;5.57;;;;;;;18.02;39.53;98091.19;4934936;28;20793;-86
2022/03/15 11:51:31;;;;;;;6.40;5.57;;;;;;;18.70;39.37;98205.06;4937647;28;20254;-87
2022/03/15 11:54:16;;;;;;;5.73;5.13;;;;;;;18.69;39.44;98208.44;4962454;28;20230;-86
2022/03/15 12:29:26;;;;;;;6.87;6.17;;;;;;;13.66;40.22;97312.81;5240410;23;20222;-89
2022/03/15 12:32:56;;;;;;;7.17;5.80;;;;;;;13.84;40.30;97341.63;4974650;29;20157;-91
2022/03/15 12:36:26;;;;;;;6.90;5.80;;;;;;;18.60;40.11;98136.69;4950626;29;20225;-90
2022/03/15 12:40:00;;;;;;;6.83;6.13;;;;;;;13.06;39.80;97215.09;4964980;29;20190;-89
2022/03/15 12:42:33;;;;;;;6.30;5.47;;;;;;;12.13;39.69;97105.47;4972067;29;20183;-89
2022/03/15 12:50:07;;;;;;;9.93;7.03;;;;;;;12.10;40.41;97008.72;4976615;29;20155;-90
2022/03/15 12:57:13;;;;;;;6.47;5.73;;;;;;;16.24;39.54;97796.28;4955136;28;20247;-86
2022/03/15 12:59:48;;;;;;;9.13;5.93;;;;;;;13.89;39.84;97360.41;4930872;28;20200;-86
2022/03/15 13:02:16;;;;;;;6.63;5.60;;;;;;;12.77;39.97;97140.28;4926526;28;20251;-86
2022/03/15 13:04:48;;;;;;;6.63;5.93;;;;;;;18.26;39.65;98054.28;4912986;28;20205;-86
2022/03/15 13:07:28;;;;;;;7.03;6.00;;;;;;;16.88;39.83;97842.09;4932458;28;20446;-87
2022/03/15 13:09:58;;;;;;;6.40;5.60;;;;;;;17.84;39.84;97976.72;4904420;28;20633;-86
2022/03/15 13:12:31;;;;;;;6.57;5.83;;;;;;;17.08;39.82;97917.59;4911838;28;20224;-87
2022/03/15 13:14:59;;;;;;;6.73;6.03;;;;;;;17.51;39.81;97913.13;4928098;28;20298;-86
2022/03/15 13:17:29;;;;;;;7.60;6.73;;;;;;;17.69;39.52;97945.44;4916072;29;20232;-87
2022/03/15 13:19:56;;;;;;;6.20;5.60;;;;;;;17.68;39.82;97943.66;4914871;28;20204;-86
2022/03/15 13:22:30;;;;;;;6.80;6.10;;;;;;;17.21;39.69;97898.81;4916621;28;20228;-87
2022/03/15 13:25:04;;;;;;;7.63;6.13;;;;;;;18.24;40.06;98038.09;4912226;29;20208;-86
2022/03/15 13:27:40;;;;;;;6.77;5.97;;;;;;;17.94;39.78;98000.91;4925673;28;20207;-86
2022/03/15 13:30:11;;;;;;;6.33;5.73;;;;;;;16.69;39.58;97772.53;4931466;28;20685;-87
2022/03/15 13:32:38;;;;;;;6.73;5.67;;;;;;;17.94;39.78;97989.09;4910229;28;20314;-86
2022/03/15 13:35:05;;;;;;;7.87;5.77;;;;;;;16.79;39.87;97812.81;4909347;28;20242;-87
2022/03/15 13:37:32;;;;;;;6.60;5.60;;;;;;;17.94;39.85;97985.66;4941237;28;20279;-86
2022/03/15 13:39:59;;;;;;;6.23;5.37;;;;;;;18.26;39.56;98038.19;4936163;28;20222;-87
2022/03/15 13:42:26;;;;;;;6.53;5.60;;;;;;;16.57;39.80;97733.81;4925142;28;20252;-87
2022/03/15 13:44:57;;;;;;;6.07;5.47;;;;;;;18.54;39.76;98082.03;4921341;28;20714;-86
2022/03/15 13:47:26;;;;;;;6.60;5.33;;;;;;;16.83;39.69;97810.50;4904261;29;20286;-86
2022/03/15 13:49:57;;;;;;;6.50;5.63;;;;;;;16.25;39.56;97694.94;4920431;29;20209;-87
2022/03/15 13:52:24;;;;;;;6.90;5.90;;;;;;;18.54;39.92;98049.84;4918432;29;20247;-86
2022/03/15 13:55:04;;;;;;;6.40;5.63;;;;;;;17.59;39.87;97878.81;4927779;28;20256;-87
2022/03/15 13:57:36;;;;;;;6.10;5.50;;;;;;;17.19;39.86;97830.16;4924393;28;20271;-87
2022/03/15 14:00:13;;;;;;;7.93;6.10;;;;;;;18.64;40.21;98049.47;4943824;29;20200;-86
2022/03/15 14:02:43;;;;;;;8.03;5.67;;;;;;;17.17;39.95;97786.03;4955025;28;20773;-86
2022/03/15 14:05:11;;;;;;;6.63;5.83;;;;;;;17.74;39.92;97884.66;4946741;28;20204;-86
2022/03/15 14:07:39;;;;;;;6.20;5.30;;;;;;;17.68;39.70;97874.19;4942291;29;20267;-87
2022/03/15 14:10:08;;;;;;;8.73;5.70;;;;;;;17.86;39.66;97911.53;4915781;28;20235;-88
2022/03/15 14:12:36;;;;;;;10.33;6.00;;;;;;;13.93;39.72;97231.00;5000747;23;20766;-79
2022/03/15 14:15:07;;;;;;;6.27;5.60;;;;;;;17.97;39.99;97930.75;4958139;28;20229;-86
2022/03/15 14:17:51;;;;;;;8.43;5.57;;;;;;;10.61;40.03;96657.97;4972643;28;20252;-87
2022/03/15 14:20:19;;;;;;;7.50;5.13;;;;;;;17.60;39.92;97837.34;4988538;28;20630;-87
2022/03/15 14:22:54;;;;;;;6.17;5.57;;;;;;;18.59;40.01;98014.44;4951160;28;20216;-87
2022/03/15 14:25:26;;;;;;;5.90;5.30;;;;;;;13.12;40.13;97057.44;4950560;28;20241;-88
2022/03/15 14:28:01;;;;;;;6.83;5.50;;;;;;;18.12;40.00;97928.97;4954516;28;20305;-87
2022/03/15 14:30:27;;;;;;;6.50;5.53;;;;;;;17.99;39.91;97895.22;4948209;28;20293;-86
2022/03/15 14:32:58;;;;;;;7.17;5.67;;;;;;;12.51;40.20;97040.53;4950916;28;20261;-87
2022/03/15 14:35:31;;;;;;;5.90;5.30;;;;;;;15.89;40.11;97505.47;4940361;28;20219;-87
2022/03/15 14:38:12;;;;;;;6.80;5.67;;;;;;;17.54;40.16;97809.97;4945253;28;20231;-80